sensor_id;sensor_type;location;lat;lon;timestamp;temperature;humidity
29237;DHT22;16266;50.866;4.398;2023-05-10T00:00:33;13.40;99.90
29237;DHT22;16266;50.866;4.398;2023-05-10T00:02:59;13.50;99.90
29237;DHT22;16266;50.866;4.398;2023-05-10T00:05:25;13.40;99.90
29237;DHT22;16266;50.866;4.398;2023-05-10T00:07:50;13.50;99.90
29237;DHT22;16266;50.866;4.398;2023-05-10T00:10:16;13.40;99.90
29237;DHT22;16266;50.866;4.398;2023-05-10T00:12:42;13.50;99.90
29237;DHT22;16266;50.866;4.398;2023-05-10T00:15:08;13.50;99.90
29237;DHT22;16266;50.866;4.398;2023-05-10T00:17:34;13.50;99.90
29237;DHT22;16266;50.866;4.398;2023-05-10T00:20:00;13.50;99.90
29237;DHT22;16266;50.866;4.398;2023-05-10T00:22:25;13.40;99.90
29237;DHT22;16266;50.866;4.398;2023-05-10T00:24:51;13.40;99.90
29237;DHT22;16266;50.866;4.398;2023-05-10T00:27:17;13.50;99.90
29237;DHT22;16266;50.866;4.398;2023-05-10T00:29:42;13.50;99.90
29237;DHT22;16266;50.866;4.398;2023-05-10T00:32:08;13.40;99.90
29237;DHT22;16266;50.866;4.398;2023-05-10T00:34:34;13.50;99.90
29237;DHT22;16266;50.866;4.398;2023-05-10T00:36:59;13.50;99.90
29237;DHT22;16266;50.866;4.398;2023-05-10T00:39:25;13.50;99.90
29237;DHT22;16266;50.866;4.398;2023-05-10T00:41:52;13.60;99.90
29237;DHT22;16266;50.866;4.398;2023-05-10T00:44:18;13.60;99.90
29237;DHT22;16266;50.866;4.398;2023-05-10T00:46:44;13.60;99.90
29237;DHT22;16266;50.866;4.398;2023-05-10T00:49:11;13.60;99.90
29237;DHT22;16266;50.866;4.398;2023-05-10T00:51:36;13.60;99.90
29237;DHT22;16266;50.866;4.398;2023-05-10T00:54:02;13.70;99.90
29237;DHT22;16266;50.866;4.398;2023-05-10T00:56:28;13.70;99.90
29237;DHT22;16266;50.866;4.398;2023-05-10T00:58:55;13.70;99.90
29237;DHT22;16266;50.866;4.398;2023-05-10T01:01:21;13.70;99.90
29237;DHT22;16266;50.866;4.398;2023-05-10T01:03:48;13.70;99.90
29237;DHT22;16266;50.866;4.398;2023-05-10T01:06:14;13.60;99.90
29237;DHT22;16266;50.866;4.398;2023-05-10T01:08:39;13.60;99.90
29237;DHT22;16266;50.866;4.398;2023-05-10T01:11:06;13.50;99.90
29237;DHT22;16266;50.866;4.398;2023-05-10T01:13:42;13.50;99.90
29237;DHT22;16266;50.866;4.398;2023-05-10T01:16:08;13.60;99.90
29237;DHT22;16266;50.866;4.398;2023-05-10T01:18:39;13.60;99.90
29237;DHT22;16266;50.866;4.398;2023-05-10T01:24:09;13.60;99.90
29237;DHT22;16266;50.866;4.398;2023-05-10T01:37:50;13.50;99.90
29237;DHT22;16266;50.866;4.398;2023-05-10T01:42:50;13.60;99.90
29237;DHT22;16266;50.866;4.398;2023-05-10T01:45:39;13.50;99.90
29237;DHT22;16266;50.866;4.398;2023-05-10T01:48:09;13.50;99.90
29237;DHT22;16266;50.866;4.398;2023-05-10T01:50:37;13.60;99.90
29237;DHT22;16266;50.866;4.398;2023-05-10T01:53:07;13.70;99.90
29237;DHT22;16266;50.866;4.398;2023-05-10T01:55:36;13.70;99.90
29237;DHT22;16266;50.866;4.398;2023-05-10T01:58:06;13.70;99.90
29237;DHT22;16266;50.866;4.398;2023-05-10T02:00:34;13.70;99.90
29237;DHT22;16266;50.866;4.398;2023-05-10T02:03:05;13.60;99.90
29237;DHT22;16266;50.866;4.398;2023-05-10T02:05:33;13.60;99.90
29237;DHT22;16266;50.866;4.398;2023-05-10T02:08:01;13.60;99.90
29237;DHT22;16266;50.866;4.398;2023-05-10T02:10:29;13.60;99.90
29237;DHT22;16266;50.866;4.398;2023-05-10T02:12:58;13.70;99.90
29237;DHT22;16266;50.866;4.398;2023-05-10T02:15:26;13.70;99.90
29237;DHT22;16266;50.866;4.398;2023-05-10T02:17:55;13.60;99.90
29237;DHT22;16266;50.866;4.398;2023-05-10T02:20:22;13.50;99.90
29237;DHT22;16266;50.866;4.398;2023-05-10T02:22:50;13.50;99.90
29237;DHT22;16266;50.866;4.398;2023-05-10T02:25:18;13.60;99.90
29237;DHT22;16266;50.866;4.398;2023-05-10T02:27:44;13.50;99.90
29237;DHT22;16266;50.866;4.398;2023-05-10T02:30:12;13.50;99.90
29237;DHT22;16266;50.866;4.398;2023-05-10T02:32:38;13.60;99.90
29237;DHT22;16266;50.866;4.398;2023-05-10T02:35:05;13.60;99.90
29237;DHT22;16266;50.866;4.398;2023-05-10T02:37:31;13.50;99.90
29237;DHT22;16266;50.866;4.398;2023-05-10T02:39:58;13.50;99.90
29237;DHT22;16266;50.866;4.398;2023-05-10T02:42:29;13.50;99.90
29237;DHT22;16266;50.866;4.398;2023-05-10T02:45:01;13.50;99.90
29237;DHT22;16266;50.866;4.398;2023-05-10T02:47:28;13.50;99.90
29237;DHT22;16266;50.866;4.398;2023-05-10T02:49:54;13.50;99.90
29237;DHT22;16266;50.866;4.398;2023-05-10T02:52:29;13.50;99.90
29237;DHT22;16266;50.866;4.398;2023-05-10T02:55:00;13.60;99.90
29237;DHT22;16266;50.866;4.398;2023-05-10T02:57:33;13.60;99.90
29237;DHT22;16266;50.866;4.398;2023-05-10T03:00:00;13.70;99.90
29237;DHT22;16266;50.866;4.398;2023-05-10T03:02:26;13.70;99.90
29237;DHT22;16266;50.866;4.398;2023-05-10T03:04:52;13.60;99.90
29237;DHT22;16266;50.866;4.398;2023-05-10T03:07:18;13.60;99.90
29237;DHT22;16266;50.866;4.398;2023-05-10T03:09:50;13.60;99.90
29237;DHT22;16266;50.866;4.398;2023-05-10T03:17:55;13.70;99.90
29237;DHT22;16266;50.866;4.398;2023-05-10T03:20:25;13.70;99.90
29237;DHT22;16266;50.866;4.398;2023-05-10T03:22:55;13.70;99.90
29237;DHT22;16266;50.866;4.398;2023-05-10T03:25:23;13.60;99.90
29237;DHT22;16266;50.866;4.398;2023-05-10T03:27:50;13.70;99.90
29237;DHT22;16266;50.866;4.398;2023-05-10T03:30:18;13.70;99.90
29237;DHT22;16266;50.866;4.398;2023-05-10T03:32:44;13.60;99.90
29237;DHT22;16266;50.866;4.398;2023-05-10T03:35:11;13.50;99.90
29237;DHT22;16266;50.866;4.398;2023-05-10T03:37:38;13.50;99.90
29237;DHT22;16266;50.866;4.398;2023-05-10T03:40:05;13.60;99.90
29237;DHT22;16266;50.866;4.398;2023-05-10T03:42:31;13.50;99.90
29237;DHT22;16266;50.866;4.398;2023-05-10T03:44:57;13.60;99.90
29237;DHT22;16266;50.866;4.398;2023-05-10T03:47:23;13.60;99.90
29237;DHT22;16266;50.866;4.398;2023-05-10T03:49:48;13.60;99.90
29237;DHT22;16266;50.866;4.398;2023-05-10T03:52:14;13.60;99.90
29237;DHT22;16266;50.866;4.398;2023-05-10T03:54:40;13.50;99.90
29237;DHT22;16266;50.866;4.398;2023-05-10T03:57:05;13.50;99.90
29237;DHT22;16266;50.866;4.398;2023-05-10T03:59:31;13.60;99.90
29237;DHT22;16266;50.866;4.398;2023-05-10T04:01:57;13.60;99.90
29237;DHT22;16266;50.866;4.398;2023-05-10T04:04:22;13.50;99.90
29237;DHT22;16266;50.866;4.398;2023-05-10T04:06:49;13.50;99.90
29237;DHT22;16266;50.866;4.398;2023-05-10T04:09:15;13.50;99.90
29237;DHT22;16266;50.866;4.398;2023-05-10T04:11:41;13.50;99.90
29237;DHT22;16266;50.866;4.398;2023-05-10T04:14:07;13.50;99.90
29237;DHT22;16266;50.866;4.398;2023-05-10T04:16:33;13.50;99.90
29237;DHT22;16266;50.866;4.398;2023-05-10T04:18:59;13.50;99.90
29237;DHT22;16266;50.866;4.398;2023-05-10T04:21:25;13.50;99.90
29237;DHT22;16266;50.866;4.398;2023-05-10T04:23:50;13.50;99.90
29237;DHT22;16266;50.866;4.398;2023-05-10T04:26:16;13.50;99.90
29237;DHT22;16266;50.866;4.398;2023-05-10T04:28:42;13.50;99.90
29237;DHT22;16266;50.866;4.398;2023-05-10T04:31:09;13.50;99.90
29237;DHT22;16266;50.866;4.398;2023-05-10T04:33:35;13.50;99.90
29237;DHT22;16266;50.866;4.398;2023-05-10T04:36:02;13.40;99.90
29237;DHT22;16266;50.866;4.398;2023-05-10T04:38:28;13.50;99.90
29237;DHT22;16266;50.866;4.398;2023-05-10T04:40:54;13.50;99.90
29237;DHT22;16266;50.866;4.398;2023-05-10T04:43:20;13.60;99.90
29237;DHT22;16266;50.866;4.398;2023-05-10T04:45:46;13.60;99.90
29237;DHT22;16266;50.866;4.398;2023-05-10T04:48:11;13.60;99.90
29237;DHT22;16266;50.866;4.398;2023-05-10T04:50:38;13.70;99.90
29237;DHT22;16266;50.866;4.398;2023-05-10T04:53:04;13.70;99.90
29237;DHT22;16266;50.866;4.398;2023-05-10T04:55:30;13.80;99.90
29237;DHT22;16266;50.866;4.398;2023-05-10T04:57:55;13.70;99.90
29237;DHT22;16266;50.866;4.398;2023-05-10T05:00:23;13.70;99.90
29237;DHT22;16266;50.866;4.398;2023-05-10T05:02:48;13.80;99.90
29237;DHT22;16266;50.866;4.398;2023-05-10T05:05:14;13.80;99.90
29237;DHT22;16266;50.866;4.398;2023-05-10T05:07:40;13.90;99.90
29237;DHT22;16266;50.866;4.398;2023-05-10T05:10:07;13.90;99.90
29237;DHT22;16266;50.866;4.398;2023-05-10T05:12:34;13.90;99.90
29237;DHT22;16266;50.866;4.398;2023-05-10T05:15:01;13.90;99.90
29237;DHT22;16266;50.866;4.398;2023-05-10T05:17:27;13.90;99.90
29237;DHT22;16266;50.866;4.398;2023-05-10T05:19:52;13.90;99.90
29237;DHT22;16266;50.866;4.398;2023-05-10T05:22:18;14.00;99.90
29237;DHT22;16266;50.866;4.398;2023-05-10T05:24:45;14.10;99.90
29237;DHT22;16266;50.866;4.398;2023-05-10T05:27:11;14.10;99.90
29237;DHT22;16266;50.866;4.398;2023-05-10T05:29:36;14.20;99.90
29237;DHT22;16266;50.866;4.398;2023-05-10T05:32:02;14.40;99.90
29237;DHT22;16266;50.866;4.398;2023-05-10T05:34:28;14.40;99.90
29237;DHT22;16266;50.866;4.398;2023-05-10T05:36:54;14.40;99.90
29237;DHT22;16266;50.866;4.398;2023-05-10T05:39:20;14.40;99.90
29237;DHT22;16266;50.866;4.398;2023-05-10T05:41:45;14.40;99.90
29237;DHT22;16266;50.866;4.398;2023-05-10T05:44:11;14.30;99.90
29237;DHT22;16266;50.866;4.398;2023-05-10T05:46:37;14.40;99.90
29237;DHT22;16266;50.866;4.398;2023-05-10T05:49:03;14.50;99.90
29237;DHT22;16266;50.866;4.398;2023-05-10T05:51:29;14.60;99.90
29237;DHT22;16266;50.866;4.398;2023-05-10T05:53:55;14.70;99.90
29237;DHT22;16266;50.866;4.398;2023-05-10T05:56:20;14.80;99.90
29237;DHT22;16266;50.866;4.398;2023-05-10T05:58:52;14.90;99.90
29237;DHT22;16266;50.866;4.398;2023-05-10T06:01:18;15.00;99.90
29237;DHT22;16266;50.866;4.398;2023-05-10T06:03:44;15.20;99.90
29237;DHT22;16266;50.866;4.398;2023-05-10T06:06:09;15.60;99.90
29237;DHT22;16266;50.866;4.398;2023-05-10T06:08:35;15.90;99.90
29237;DHT22;16266;50.866;4.398;2023-05-10T06:11:01;16.10;99.90
29237;DHT22;16266;50.866;4.398;2023-05-10T06:13:27;16.30;99.90
29237;DHT22;16266;50.866;4.398;2023-05-10T06:15:58;16.50;99.90
29237;DHT22;16266;50.866;4.398;2023-05-10T06:18:24;16.90;99.90
29237;DHT22;16266;50.866;4.398;2023-05-10T06:20:50;17.20;99.90
29237;DHT22;16266;50.866;4.398;2023-05-10T06:23:15;17.30;99.90
29237;DHT22;16266;50.866;4.398;2023-05-10T06:25:41;17.50;99.90
29237;DHT22;16266;50.866;4.398;2023-05-10T06:28:07;17.30;99.90
29237;DHT22;16266;50.866;4.398;2023-05-10T06:30:32;17.20;99.90
29237;DHT22;16266;50.866;4.398;2023-05-10T06:32:58;16.80;99.90
29237;DHT22;16266;50.866;4.398;2023-05-10T06:35:24;16.90;99.90
29237;DHT22;16266;50.866;4.398;2023-05-10T06:37:50;16.70;99.90
29237;DHT22;16266;50.866;4.398;2023-05-10T06:40:16;16.60;99.90
29237;DHT22;16266;50.866;4.398;2023-05-10T06:42:42;16.50;99.90
29237;DHT22;16266;50.866;4.398;2023-05-10T06:45:10;16.30;99.90
29237;DHT22;16266;50.866;4.398;2023-05-10T06:47:36;16.20;99.90
29237;DHT22;16266;50.866;4.398;2023-05-10T06:50:01;16.10;99.90
29237;DHT22;16266;50.866;4.398;2023-05-10T06:52:28;15.90;99.90
29237;DHT22;16266;50.866;4.398;2023-05-10T06:54:54;15.90;99.90
29237;DHT22;16266;50.866;4.398;2023-05-10T06:57:20;15.80;99.90
29237;DHT22;16266;50.866;4.398;2023-05-10T06:59:46;15.90;99.90
29237;DHT22;16266;50.866;4.398;2023-05-10T07:02:15;15.90;99.90
29237;DHT22;16266;50.866;4.398;2023-05-10T07:04:41;15.80;99.90
29237;DHT22;16266;50.866;4.398;2023-05-10T07:07:07;15.70;99.90
29237;DHT22;16266;50.866;4.398;2023-05-10T07:09:33;15.50;99.90
29237;DHT22;16266;50.866;4.398;2023-05-10T07:11:59;15.50;99.90
29237;DHT22;16266;50.866;4.398;2023-05-10T07:14:25;15.40;99.90
29237;DHT22;16266;50.866;4.398;2023-05-10T07:16:51;15.50;99.90
29237;DHT22;16266;50.866;4.398;2023-05-10T07:19:16;15.50;99.90
29237;DHT22;16266;50.866;4.398;2023-05-10T07:21:42;15.50;99.90
29237;DHT22;16266;50.866;4.398;2023-05-10T07:24:09;15.40;99.90
29237;DHT22;16266;50.866;4.398;2023-05-10T07:26:34;15.30;99.90
29237;DHT22;16266;50.866;4.398;2023-05-10T07:29:00;15.30;99.90
29237;DHT22;16266;50.866;4.398;2023-05-10T07:31:26;15.20;99.90
29237;DHT22;16266;50.866;4.398;2023-05-10T07:33:52;15.40;99.90
29237;DHT22;16266;50.866;4.398;2023-05-10T07:36:18;15.40;99.90
29237;DHT22;16266;50.866;4.398;2023-05-10T07:38:43;15.40;99.90
29237;DHT22;16266;50.866;4.398;2023-05-10T07:41:11;15.10;99.90
29237;DHT22;16266;50.866;4.398;2023-05-10T07:43:37;15.10;99.90
29237;DHT22;16266;50.866;4.398;2023-05-10T07:46:02;15.10;99.90
29237;DHT22;16266;50.866;4.398;2023-05-10T07:48:28;14.90;99.90
29237;DHT22;16266;50.866;4.398;2023-05-10T07:50:54;14.80;99.90
29237;DHT22;16266;50.866;4.398;2023-05-10T07:53:19;14.70;99.90
29237;DHT22;16266;50.866;4.398;2023-05-10T07:55:57;14.70;99.90
29237;DHT22;16266;50.866;4.398;2023-05-10T07:58:24;14.50;99.90
29237;DHT22;16266;50.866;4.398;2023-05-10T08:00:50;14.60;99.90
29237;DHT22;16266;50.866;4.398;2023-05-10T08:03:15;14.50;99.90
29237;DHT22;16266;50.866;4.398;2023-05-10T08:05:41;14.70;99.90
29237;DHT22;16266;50.866;4.398;2023-05-10T08:08:07;14.90;99.90
29237;DHT22;16266;50.866;4.398;2023-05-10T08:10:33;15.20;99.90
29237;DHT22;16266;50.866;4.398;2023-05-10T08:12:59;15.60;99.90
29237;DHT22;16266;50.866;4.398;2023-05-10T08:15:24;15.90;99.90
29237;DHT22;16266;50.866;4.398;2023-05-10T08:17:53;16.10;99.90
29237;DHT22;16266;50.866;4.398;2023-05-10T08:20:20;16.60;99.90
29237;DHT22;16266;50.866;4.398;2023-05-10T08:22:46;16.80;99.90
29237;DHT22;16266;50.866;4.398;2023-05-10T08:25:12;17.00;99.90
29237;DHT22;16266;50.866;4.398;2023-05-10T08:27:37;17.10;99.90
29237;DHT22;16266;50.866;4.398;2023-05-10T08:30:03;17.30;99.90
29237;DHT22;16266;50.866;4.398;2023-05-10T08:32:29;17.40;99.90
29237;DHT22;16266;50.866;4.398;2023-05-10T08:34:55;17.40;99.90
29237;DHT22;16266;50.866;4.398;2023-05-10T08:37:23;17.70;99.90
29237;DHT22;16266;50.866;4.398;2023-05-10T08:39:48;17.90;99.90
29237;DHT22;16266;50.866;4.398;2023-05-10T08:42:16;17.90;99.90
29237;DHT22;16266;50.866;4.398;2023-05-10T08:44:45;18.20;99.90
29237;DHT22;16266;50.866;4.398;2023-05-10T08:47:16;18.70;99.90
29237;DHT22;16266;50.866;4.398;2023-05-10T08:49:43;18.90;99.90
29237;DHT22;16266;50.866;4.398;2023-05-10T08:52:11;19.00;99.90
29237;DHT22;16266;50.866;4.398;2023-05-10T08:54:39;18.80;99.90
29237;DHT22;16266;50.866;4.398;2023-05-10T08:57:10;18.70;99.90
29237;DHT22;16266;50.866;4.398;2023-05-10T08:59:37;18.80;99.90
29237;DHT22;16266;50.866;4.398;2023-05-10T09:02:09;18.80;99.90
29237;DHT22;16266;50.866;4.398;2023-05-10T09:04:35;18.90;99.90
29237;DHT22;16266;50.866;4.398;2023-05-10T09:07:03;18.70;99.90
29237;DHT22;16266;50.866;4.398;2023-05-10T09:09:32;18.40;99.90
29237;DHT22;16266;50.866;4.398;2023-05-10T09:11:58;18.30;99.90
29237;DHT22;16266;50.866;4.398;2023-05-10T09:14:25;18.30;99.90
29237;DHT22;16266;50.866;4.398;2023-05-10T09:16:51;18.20;99.90
29237;DHT22;16266;50.866;4.398;2023-05-10T09:19:17;17.80;99.90
29237;DHT22;16266;50.866;4.398;2023-05-10T09:21:43;17.40;99.90
29237;DHT22;16266;50.866;4.398;2023-05-10T09:24:09;16.80;99.90
29237;DHT22;16266;50.866;4.398;2023-05-10T09:26:45;16.60;99.90
29237;DHT22;16266;50.866;4.398;2023-05-10T09:29:14;16.20;99.90
29237;DHT22;16266;50.866;4.398;2023-05-10T09:31:51;15.90;99.90
29237;DHT22;16266;50.866;4.398;2023-05-10T09:34:32;15.70;99.90
29237;DHT22;16266;50.866;4.398;2023-05-10T09:37:02;15.50;99.90
29237;DHT22;16266;50.866;4.398;2023-05-10T09:39:37;15.30;99.90
29237;DHT22;16266;50.866;4.398;2023-05-10T09:42:07;15.30;99.90
29237;DHT22;16266;50.866;4.398;2023-05-10T09:44:40;15.20;99.90
29237;DHT22;16266;50.866;4.398;2023-05-10T09:47:17;15.20;99.90
29237;DHT22;16266;50.866;4.398;2023-05-10T09:49:45;15.20;99.90
29237;DHT22;16266;50.866;4.398;2023-05-10T09:52:14;15.10;99.90
29237;DHT22;16266;50.866;4.398;2023-05-10T09:54:52;15.20;99.90
29237;DHT22;16266;50.866;4.398;2023-05-10T09:57:20;15.30;99.90
29237;DHT22;16266;50.866;4.398;2023-05-10T09:59:47;15.10;99.90
29237;DHT22;16266;50.866;4.398;2023-05-10T10:02:13;15.10;99.90
29237;DHT22;16266;50.866;4.398;2023-05-10T10:04:49;15.10;99.90
29237;DHT22;16266;50.866;4.398;2023-05-10T10:07:15;15.20;99.90
29237;DHT22;16266;50.866;4.398;2023-05-10T10:09:48;15.30;99.90
29237;DHT22;16266;50.866;4.398;2023-05-10T10:12:14;15.20;99.90
29237;DHT22;16266;50.866;4.398;2023-05-10T10:14:39;15.10;99.90
29237;DHT22;16266;50.866;4.398;2023-05-10T10:17:06;15.10;99.90
29237;DHT22;16266;50.866;4.398;2023-05-10T10:19:34;14.90;99.90
29237;DHT22;16266;50.866;4.398;2023-05-10T10:22:00;14.80;99.90
29237;DHT22;16266;50.866;4.398;2023-05-10T10:24:26;14.80;99.90
29237;DHT22;16266;50.866;4.398;2023-05-10T10:26:55;14.90;99.90
29237;DHT22;16266;50.866;4.398;2023-05-10T10:29:39;14.80;99.90
29237;DHT22;16266;50.866;4.398;2023-05-10T10:35:02;14.60;99.90
29237;DHT22;16266;50.866;4.398;2023-05-10T10:37:44;14.60;99.90
29237;DHT22;16266;50.866;4.398;2023-05-10T10:40:30;14.60;99.90
29237;DHT22;16266;50.866;4.398;2023-05-10T10:42:57;14.90;99.90
29237;DHT22;16266;50.866;4.398;2023-05-10T10:45:24;15.10;99.90
29237;DHT22;16266;50.866;4.398;2023-05-10T10:48:23;15.20;99.90
29237;DHT22;16266;50.866;4.398;2023-05-10T10:50:56;15.10;99.90
29237;DHT22;16266;50.866;4.398;2023-05-10T10:53:26;15.20;99.90
29237;DHT22;16266;50.866;4.398;2023-05-10T10:56:06;15.40;99.90
29237;DHT22;16266;50.866;4.398;2023-05-10T10:58:33;15.60;99.90
29237;DHT22;16266;50.866;4.398;2023-05-10T11:01:16;15.80;99.90
29237;DHT22;16266;50.866;4.398;2023-05-10T11:06:32;15.80;99.90
29237;DHT22;16266;50.866;4.398;2023-05-10T11:09:09;16.00;99.90
29237;DHT22;16266;50.866;4.398;2023-05-10T11:11:36;16.00;99.90
29237;DHT22;16266;50.866;4.398;2023-05-10T11:14:09;15.90;99.90
29237;DHT22;16266;50.866;4.398;2023-05-10T11:16:42;15.90;99.90
29237;DHT22;16266;50.866;4.398;2023-05-10T11:19:10;15.80;99.90
29237;DHT22;16266;50.866;4.398;2023-05-10T11:21:51;15.80;99.90
29237;DHT22;16266;50.866;4.398;2023-05-10T11:24:22;15.90;99.90
29237;DHT22;16266;50.866;4.398;2023-05-10T11:26:51;16.00;99.90
29237;DHT22;16266;50.866;4.398;2023-05-10T11:29:18;16.10;99.90
29237;DHT22;16266;50.866;4.398;2023-05-10T11:31:46;16.30;99.90
29237;DHT22;16266;50.866;4.398;2023-05-10T11:34:26;16.50;99.90
29237;DHT22;16266;50.866;4.398;2023-05-10T11:36:53;16.80;99.90
29237;DHT22;16266;50.866;4.398;2023-05-10T11:39:20;17.00;99.90
29237;DHT22;16266;50.866;4.398;2023-05-10T11:41:48;17.10;99.90
29237;DHT22;16266;50.866;4.398;2023-05-10T11:44:14;17.30;99.90
29237;DHT22;16266;50.866;4.398;2023-05-10T11:46:40;17.70;99.90
29237;DHT22;16266;50.866;4.398;2023-05-10T11:49:07;18.10;99.90
29237;DHT22;16266;50.866;4.398;2023-05-10T11:51:34;18.70;99.90
29237;DHT22;16266;50.866;4.398;2023-05-10T11:54:05;18.80;99.90
29237;DHT22;16266;50.866;4.398;2023-05-10T11:56:33;19.00;99.90
29237;DHT22;16266;50.866;4.398;2023-05-10T11:59:00;19.20;99.90
29237;DHT22;16266;50.866;4.398;2023-05-10T12:01:28;19.00;99.90
29237;DHT22;16266;50.866;4.398;2023-05-10T12:03:55;19.00;99.90
29237;DHT22;16266;50.866;4.398;2023-05-10T12:06:34;19.30;99.90
29237;DHT22;16266;50.866;4.398;2023-05-10T12:09:06;19.40;99.90
29237;DHT22;16266;50.866;4.398;2023-05-10T12:11:37;19.50;99.90
29237;DHT22;16266;50.866;4.398;2023-05-10T12:14:04;19.50;99.90
29237;DHT22;16266;50.866;4.398;2023-05-10T12:16:30;19.80;99.90
29237;DHT22;16266;50.866;4.398;2023-05-10T12:18:57;19.90;99.90
29237;DHT22;16266;50.866;4.398;2023-05-10T12:21:23;20.20;99.90
29237;DHT22;16266;50.866;4.398;2023-05-10T12:23:54;20.30;99.90
29237;DHT22;16266;50.866;4.398;2023-05-10T12:26:24;20.40;99.90
29237;DHT22;16266;50.866;4.398;2023-05-10T12:28:52;20.40;99.90
29237;DHT22;16266;50.866;4.398;2023-05-10T12:31:19;20.50;99.90
29237;DHT22;16266;50.866;4.398;2023-05-10T12:33:46;20.70;99.90
29237;DHT22;16266;50.866;4.398;2023-05-10T12:36:16;21.20;99.90
29237;DHT22;16266;50.866;4.398;2023-05-10T12:38:44;21.60;99.90
29237;DHT22;16266;50.866;4.398;2023-05-10T12:41:16;22.10;99.90
29237;DHT22;16266;50.866;4.398;2023-05-10T12:43:42;22.50;99.90
29237;DHT22;16266;50.866;4.398;2023-05-10T12:46:09;22.80;99.90
29237;DHT22;16266;50.866;4.398;2023-05-10T12:48:36;23.10;99.90
29237;DHT22;16266;50.866;4.398;2023-05-10T12:51:03;23.90;99.90
29237;DHT22;16266;50.866;4.398;2023-05-10T12:53:30;24.30;99.90
29237;DHT22;16266;50.866;4.398;2023-05-10T12:55:56;24.90;99.90
29237;DHT22;16266;50.866;4.398;2023-05-10T12:58:22;24.70;99.90
29237;DHT22;16266;50.866;4.398;2023-05-10T13:00:47;25.10;99.90
29237;DHT22;16266;50.866;4.398;2023-05-10T13:03:13;25.30;99.90
29237;DHT22;16266;50.866;4.398;2023-05-10T13:05:40;25.20;99.90
29237;DHT22;16266;50.866;4.398;2023-05-10T13:08:05;25.20;99.90
29237;DHT22;16266;50.866;4.398;2023-05-10T13:10:31;24.80;99.90
29237;DHT22;16266;50.866;4.398;2023-05-10T13:12:59;25.00;99.90
29237;DHT22;16266;50.866;4.398;2023-05-10T13:15:25;24.80;99.90
29237;DHT22;16266;50.866;4.398;2023-05-10T13:17:52;24.60;99.90
29237;DHT22;16266;50.866;4.398;2023-05-10T13:20:18;24.50;99.90
29237;DHT22;16266;50.866;4.398;2023-05-10T13:22:44;24.40;99.90
29237;DHT22;16266;50.866;4.398;2023-05-10T13:25:10;24.50;99.90
29237;DHT22;16266;50.866;4.398;2023-05-10T13:27:36;24.70;99.90
29237;DHT22;16266;50.866;4.398;2023-05-10T13:30:03;24.80;99.90
29237;DHT22;16266;50.866;4.398;2023-05-10T13:32:30;24.50;99.90
29237;DHT22;16266;50.866;4.398;2023-05-10T13:34:57;24.30;99.90
29237;DHT22;16266;50.866;4.398;2023-05-10T13:37:22;24.30;99.90
29237;DHT22;16266;50.866;4.398;2023-05-10T13:39:48;24.20;99.90
29237;DHT22;16266;50.866;4.398;2023-05-10T13:42:14;23.90;99.90
29237;DHT22;16266;50.866;4.398;2023-05-10T13:44:40;23.70;99.90
29237;DHT22;16266;50.866;4.398;2023-05-10T13:47:05;23.50;99.90
29237;DHT22;16266;50.866;4.398;2023-05-10T13:49:32;23.50;99.90
29237;DHT22;16266;50.866;4.398;2023-05-10T13:51:59;23.50;99.90
29237;DHT22;16266;50.866;4.398;2023-05-10T13:54:31;23.70;99.90
29237;DHT22;16266;50.866;4.398;2023-05-10T13:56:57;23.90;99.90
29237;DHT22;16266;50.866;4.398;2023-05-10T13:59:23;23.90;99.90
29237;DHT22;16266;50.866;4.398;2023-05-10T14:01:48;23.40;99.90
29237;DHT22;16266;50.866;4.398;2023-05-10T14:04:14;23.10;99.90
29237;DHT22;16266;50.866;4.398;2023-05-10T14:06:39;22.80;99.90
29237;DHT22;16266;50.866;4.398;2023-05-10T14:09:05;22.40;99.90
29237;DHT22;16266;50.866;4.398;2023-05-10T14:11:31;22.10;99.90
29237;DHT22;16266;50.866;4.398;2023-05-10T14:13:56;21.80;99.90
29237;DHT22;16266;50.866;4.398;2023-05-10T14:16:22;21.90;99.90
29237;DHT22;16266;50.866;4.398;2023-05-10T14:18:48;22.40;99.90
29237;DHT22;16266;50.866;4.398;2023-05-10T14:21:14;22.80;99.90
29237;DHT22;16266;50.866;4.398;2023-05-10T14:23:40;23.10;99.90
29237;DHT22;16266;50.866;4.398;2023-05-10T14:26:06;23.00;99.90
29237;DHT22;16266;50.866;4.398;2023-05-10T14:28:32;23.00;99.90
29237;DHT22;16266;50.866;4.398;2023-05-10T14:30:59;23.00;99.90
29237;DHT22;16266;50.866;4.398;2023-05-10T14:33:24;22.60;99.90
29237;DHT22;16266;50.866;4.398;2023-05-10T14:35:50;22.60;99.90
29237;DHT22;16266;50.866;4.398;2023-05-10T14:38:16;22.60;99.90
29237;DHT22;16266;50.866;4.398;2023-05-10T14:40:42;22.40;99.90
29237;DHT22;16266;50.866;4.398;2023-05-10T14:43:08;22.20;99.90
29237;DHT22;16266;50.866;4.398;2023-05-10T14:45:34;22.00;99.90
29237;DHT22;16266;50.866;4.398;2023-05-10T14:48:00;21.70;99.90
29237;DHT22;16266;50.866;4.398;2023-05-10T14:50:26;21.50;99.90
29237;DHT22;16266;50.866;4.398;2023-05-10T14:52:51;21.20;99.90
29237;DHT22;16266;50.866;4.398;2023-05-10T14:55:17;20.70;99.90
29237;DHT22;16266;50.866;4.398;2023-05-10T14:57:43;20.10;99.90
29237;DHT22;16266;50.866;4.398;2023-05-10T15:00:10;19.80;99.90
29237;DHT22;16266;50.866;4.398;2023-05-10T15:02:36;19.60;99.90
29237;DHT22;16266;50.866;4.398;2023-05-10T15:05:02;19.30;99.90
29237;DHT22;16266;50.866;4.398;2023-05-10T15:07:29;19.10;99.90
29237;DHT22;16266;50.866;4.398;2023-05-10T15:09:58;19.00;99.90
29237;DHT22;16266;50.866;4.398;2023-05-10T15:12:27;19.10;99.90
29237;DHT22;16266;50.866;4.398;2023-05-10T15:14:54;19.60;99.90
29237;DHT22;16266;50.866;4.398;2023-05-10T15:17:20;19.70;99.90
29237;DHT22;16266;50.866;4.398;2023-05-10T15:19:45;19.70;99.90
29237;DHT22;16266;50.866;4.398;2023-05-10T15:22:11;19.70;99.90
29237;DHT22;16266;50.866;4.398;2023-05-10T15:24:36;19.80;99.90
29237;DHT22;16266;50.866;4.398;2023-05-10T15:27:02;20.00;99.90
29237;DHT22;16266;50.866;4.398;2023-05-10T15:29:28;20.10;99.90
29237;DHT22;16266;50.866;4.398;2023-05-10T15:31:54;20.00;99.90
29237;DHT22;16266;50.866;4.398;2023-05-10T15:34:20;20.30;99.90
29237;DHT22;16266;50.866;4.398;2023-05-10T15:36:46;20.40;99.90
29237;DHT22;16266;50.866;4.398;2023-05-10T15:39:12;20.60;99.90
29237;DHT22;16266;50.866;4.398;2023-05-10T15:41:37;20.80;99.90
29237;DHT22;16266;50.866;4.398;2023-05-10T15:44:03;21.00;99.90
29237;DHT22;16266;50.866;4.398;2023-05-10T15:46:29;20.80;99.90
29237;DHT22;16266;50.866;4.398;2023-05-10T15:48:56;20.70;99.90
29237;DHT22;16266;50.866;4.398;2023-05-10T15:51:22;20.80;99.90
29237;DHT22;16266;50.866;4.398;2023-05-10T15:53:48;20.80;99.90
29237;DHT22;16266;50.866;4.398;2023-05-10T15:56:13;20.40;99.90
29237;DHT22;16266;50.866;4.398;2023-05-10T15:58:40;20.10;99.90